NKS301 KLAS-KRNO
Flight info
| Callsign | NKS301 |
|---|---|
| Flight time | 0h 58m |
| Altitude | 36000 |
| Route | JOHKR5 KENNO SCOLA1 |
| Aircraft | A320/M-SDE3FGHIRWY/LB1 |
Departure
| Time | 2026-05-07 18:04 |
|---|---|
| Airport | Harry Reid International Airport (KLAS) |
Arrival
| Time | 2026-05-07 19:02 |
|---|---|
| Airport | Reno Tahoe International Airport (KRNO) |
| Time | Latitude | Longitude | Altitude | Speed | Heading |
|---|---|---|---|---|---|
| 2026-05-07 17:42 | 36.08501 | -115.15486 | 2116 ft | 0 kts | 54° |
| 2026-05-07 17:50 | 36.08488 | -115.15510 | 2118 ft | 4 kts | 59° |
| 2026-05-07 17:50 | 36.08475 | -115.15539 | 2121 ft | 4 kts | 76° |
| 2026-05-07 17:51 | 36.08475 | -115.15570 | 2119 ft | 4 kts | 120° |
| 2026-05-07 17:51 | 36.08484 | -115.15583 | 2121 ft | 1 kts | 156° |
| 2026-05-07 17:51 | 36.08485 | -115.15583 | 2122 ft | 0 kts | 156° |
| 2026-05-07 17:54 | 36.08483 | -115.15582 | 2120 ft | 1 kts | 156° |
| 2026-05-07 17:54 | 36.08469 | -115.15575 | 2121 ft | 3 kts | 156° |
| 2026-05-07 17:55 | 36.08435 | -115.15555 | 2120 ft | 8 kts | 155° |
| 2026-05-07 17:55 | 36.08376 | -115.15521 | 2122 ft | 11 kts | 155° |
| 2026-05-07 17:55 | 36.08304 | -115.15480 | 2121 ft | 12 kts | 154° |
| 2026-05-07 17:55 | 36.08230 | -115.15437 | 2126 ft | 12 kts | 154° |
| 2026-05-07 17:56 | 36.08149 | -115.15432 | 2130 ft | 12 kts | 189° |
| 2026-05-07 17:56 | 36.08061 | -115.15437 | 2126 ft | 14 kts | 165° |
| 2026-05-07 17:56 | 36.07968 | -115.15388 | 2127 ft | 15 kts | 154° |
| 2026-05-07 17:56 | 36.07892 | -115.15342 | 2128 ft | 1 kts | 154° |
| 2026-05-07 17:57 | 36.07880 | -115.15335 | 2129 ft | 3 kts | 154° |
| 2026-05-07 17:57 | 36.07861 | -115.15324 | 2129 ft | 6 kts | 154° |
| 2026-05-07 17:57 | 36.07805 | -115.15236 | 2127 ft | 15 kts | 98° |
| 2026-05-07 17:57 | 36.07803 | -115.15087 | 2125 ft | 19 kts | 93° |
| 2026-05-07 17:58 | 36.07793 | -115.14918 | 2126 ft | 21 kts | 95° |
| 2026-05-07 17:58 | 36.07782 | -115.14775 | 2122 ft | 18 kts | 95° |
| 2026-05-07 17:58 | 36.07770 | -115.14602 | 2121 ft | 21 kts | 95° |
| 2026-05-07 17:58 | 36.07759 | -115.14417 | 2121 ft | 22 kts | 93° |
| 2026-05-07 17:59 | 36.07754 | -115.14219 | 2119 ft | 24 kts | 89° |
| 2026-05-07 17:59 | 36.07752 | -115.14006 | 2122 ft | 25 kts | 90° |
| 2026-05-07 17:59 | 36.07755 | -115.13797 | 2125 ft | 25 kts | 89° |
| 2026-05-07 17:59 | 36.07754 | -115.13572 | 2125 ft | 27 kts | 90° |
| 2026-05-07 18:00 | 36.07755 | -115.13340 | 2126 ft | 28 kts | 90° |
| 2026-05-07 18:00 | 36.07755 | -115.13116 | 2123 ft | 11 kts | 89° |
| 2026-05-07 18:00 | 36.07755 | -115.13006 | 2122 ft | 14 kts | 90° |
| 2026-05-07 18:00 | 36.07754 | -115.12874 | 2122 ft | 17 kts | 90° |
| 2026-05-07 18:01 | 36.07753 | -115.12712 | 2119 ft | 21 kts | 90° |
| 2026-05-07 18:01 | 36.07755 | -115.12524 | 2119 ft | 22 kts | 90° |
| 2026-05-07 18:01 | 36.07755 | -115.12330 | 2121 ft | 23 kts | 90° |
| 2026-05-07 18:01 | 36.07753 | -115.12170 | 2121 ft | 14 kts | 101° |
| 2026-05-07 18:02 | 36.07722 | -115.12127 | 2123 ft | 2 kts | 160° |
| 2026-05-07 18:02 | 36.07690 | -115.12121 | 2124 ft | 8 kts | 175° |
| 2026-05-07 18:02 | 36.07643 | -115.12163 | 2125 ft | 10 kts | 267° |
| 2026-05-07 18:03 | 36.07642 | -115.12292 | 2123 ft | 28 kts | 270° |
| 2026-05-07 18:03 | 36.07643 | -115.12824 | 2122 ft | 97 kts | 269° |
| 2026-05-07 18:03 | 36.07642 | -115.13889 | 2122 ft | 148 kts | 270° |
| 2026-05-07 18:03 | 36.07649 | -115.15305 | 2258 ft | 175 kts | 271° |
| 2026-05-07 18:04 | 36.07654 | -115.16795 | 2941 ft | 174 kts | 271° |
| 2026-05-07 18:04 | 36.07662 | -115.18302 | 3557 ft | 177 kts | 271° |
| 2026-05-07 18:04 | 36.07657 | -115.19850 | 4039 ft | 188 kts | 270° |
| 2026-05-07 18:04 | 36.07534 | -115.21547 | 4275 ft | 211 kts | 259° |
| 2026-05-07 18:05 | 36.07244 | -115.23430 | 4521 ft | 236 kts | 260° |
| 2026-05-07 18:05 | 36.06617 | -115.25380 | 4995 ft | 253 kts | 231° |
| 2026-05-07 18:05 | 36.05191 | -115.26738 | 5510 ft | 272 kts | 202° |
| 2026-05-07 18:05 | 36.03387 | -115.27584 | 6223 ft | 281 kts | 200° |
| 2026-05-07 18:06 | 36.01530 | -115.28409 | 7071 ft | 285 kts | 200° |
| 2026-05-07 18:06 | 35.99642 | -115.29243 | 7750 ft | 292 kts | 201° |
| 2026-05-07 18:06 | 35.97800 | -115.30337 | 8256 ft | 294 kts | 208° |
| 2026-05-07 18:06 | 35.95984 | -115.31522 | 9172 ft | 296 kts | 209° |
| 2026-05-07 18:07 | 35.94151 | -115.32719 | 10033 ft | 300 kts | 209° |
| 2026-05-07 18:07 | 35.92291 | -115.33935 | 10787 ft | 305 kts | 209° |
| 2026-05-07 18:07 | 35.90565 | -115.35463 | 11516 ft | 308 kts | 226° |
| 2026-05-07 18:07 | 35.89308 | -115.37570 | 12232 ft | 311 kts | 245° |
| 2026-05-07 18:08 | 35.88639 | -115.40114 | 12955 ft | 314 kts | 263° |
| 2026-05-07 18:08 | 35.88586 | -115.42806 | 13666 ft | 317 kts | 274° |
| 2026-05-07 18:08 | 35.88655 | -115.45542 | 14317 ft | 321 kts | 274° |
| 2026-05-07 18:08 | 35.88719 | -115.48313 | 14977 ft | 325 kts | 274° |
| 2026-05-07 18:09 | 35.88777 | -115.51111 | 15663 ft | 328 kts | 274° |
| 2026-05-07 18:09 | 35.88832 | -115.53940 | 16338 ft | 330 kts | 274° |
| 2026-05-07 18:09 | 35.88889 | -115.56787 | 16990 ft | 336 kts | 274° |
| 2026-05-07 18:09 | 35.88948 | -115.59757 | 17118 ft | 357 kts | 274° |
| 2026-05-07 18:10 | 35.89009 | -115.62891 | 17405 ft | 370 kts | 274° |
| 2026-05-07 18:10 | 35.89070 | -115.66094 | 17942 ft | 376 kts | 274° |
| 2026-05-07 18:10 | 35.89130 | -115.69340 | 18542 ft | 380 kts | 274° |
| 2026-05-07 18:10 | 35.89186 | -115.72569 | 19105 ft | 383 kts | 274° |
| 2026-05-07 18:11 | 35.89243 | -115.75864 | 19697 ft | 386 kts | 274° |
| 2026-05-07 18:11 | 35.89282 | -115.78105 | 20090 ft | 388 kts | 274° |
| 2026-05-07 18:11 | 35.89353 | -115.82539 | 20870 ft | 392 kts | 274° |
| 2026-05-07 18:11 | 35.89406 | -115.85914 | 21446 ft | 395 kts | 274° |
| 2026-05-07 18:12 | 35.89587 | -115.89301 | 21986 ft | 396 kts | 282° |
| 2026-05-07 18:12 | 35.90282 | -115.92590 | 22547 ft | 395 kts | 294° |
| 2026-05-07 18:12 | 35.91487 | -115.95627 | 23064 ft | 394 kts | 305° |
| 2026-05-07 18:12 | 35.93155 | -115.98301 | 23621 ft | 393 kts | 316° |
| 2026-05-07 18:13 | 35.95102 | -116.00688 | 24084 ft | 395 kts | 318° |
| 2026-05-07 18:13 | 35.97038 | -116.03055 | 24523 ft | 398 kts | 317° |
| 2026-05-07 18:13 | 35.99010 | -116.05481 | 24989 ft | 400 kts | 317° |
| 2026-05-07 18:13 | 36.00981 | -116.07921 | 25444 ft | 403 kts | 317° |
| 2026-05-07 18:14 | 36.02965 | -116.10388 | 25892 ft | 405 kts | 317° |
| 2026-05-07 18:14 | 36.04957 | -116.12866 | 26347 ft | 407 kts | 317° |
| 2026-05-07 18:14 | 36.06967 | -116.15361 | 26782 ft | 410 kts | 317° |
| 2026-05-07 18:14 | 36.08985 | -116.17861 | 27202 ft | 412 kts | 317° |
| 2026-05-07 18:15 | 36.11017 | -116.20378 | 27603 ft | 414 kts | 317° |
| 2026-05-07 18:15 | 36.13063 | -116.22912 | 28005 ft | 417 kts | 317° |
| 2026-05-07 18:15 | 36.15116 | -116.25457 | 28410 ft | 419 kts | 317° |
| 2026-05-07 18:15 | 36.17155 | -116.27991 | 28780 ft | 421 kts | 317° |
| 2026-05-07 18:16 | 36.19227 | -116.30571 | 29169 ft | 424 kts | 317° |
| 2026-05-07 18:16 | 36.21311 | -116.33167 | 29563 ft | 426 kts | 317° |
| 2026-05-07 18:16 | 36.23411 | -116.35786 | 29952 ft | 429 kts | 317° |
| 2026-05-07 18:16 | 36.25519 | -116.38419 | 30299 ft | 431 kts | 317° |
| 2026-05-07 18:17 | 36.27637 | -116.41065 | 30623 ft | 433 kts | 317° |
| 2026-05-07 18:17 | 36.29780 | -116.43715 | 30936 ft | 435 kts | 318° |
| 2026-05-07 18:17 | 36.31973 | -116.46348 | 31093 ft | 441 kts | 319° |
| 2026-05-07 18:17 | 36.34189 | -116.48959 | 31217 ft | 447 kts | 319° |
| 2026-05-07 18:18 | 36.36470 | -116.51630 | 31342 ft | 453 kts | 319° |
| 2026-05-07 18:18 | 36.38769 | -116.54328 | 31468 ft | 457 kts | 319° |
| 2026-05-07 18:18 | 36.41082 | -116.57062 | 31584 ft | 461 kts | 319° |
| 2026-05-07 18:18 | 36.43403 | -116.59830 | 31728 ft | 463 kts | 318° |
| 2026-05-07 18:19 | 36.45729 | -116.62601 | 31931 ft | 463 kts | 319° |
| 2026-05-07 18:19 | 36.48083 | -116.65334 | 32148 ft | 463 kts | 320° |
| 2026-05-07 18:19 | 36.50464 | -116.68037 | 32406 ft | 462 kts | 320° |
| 2026-05-07 18:19 | 36.52856 | -116.70720 | 32655 ft | 462 kts | 320° |
| 2026-05-07 18:20 | 36.55211 | -116.73365 | 32908 ft | 461 kts | 320° |
| 2026-05-07 18:20 | 36.57588 | -116.76049 | 33161 ft | 461 kts | 320° |
| 2026-05-07 18:20 | 36.59960 | -116.78738 | 33414 ft | 460 kts | 320° |
| 2026-05-07 18:20 | 36.62322 | -116.81423 | 33695 ft | 459 kts | 320° |
| 2026-05-07 18:21 | 36.64679 | -116.84114 | 33936 ft | 459 kts | 320° |
| 2026-05-07 18:21 | 36.67031 | -116.86808 | 34152 ft | 459 kts | 319° |
| 2026-05-07 18:21 | 36.69382 | -116.89506 | 34335 ft | 460 kts | 319° |
| 2026-05-07 18:21 | 36.71737 | -116.92206 | 34576 ft | 459 kts | 320° |
| 2026-05-07 18:22 | 36.74227 | -116.94666 | 34794 ft | 456 kts | 329° |
| 2026-05-07 18:22 | 36.79763 | -116.98376 | 35259 ft | 453 kts | 334° |
| 2026-05-07 18:22 | 36.82571 | -117.00185 | 35514 ft | 453 kts | 334° |
| 2026-05-07 18:23 | 36.85370 | -117.01996 | 35718 ft | 453 kts | 334° |
| 2026-05-07 18:23 | 36.88172 | -117.03817 | 35932 ft | 453 kts | 334° |
| 2026-05-07 18:23 | 36.90974 | -117.05641 | 36019 ft | 453 kts | 334° |
| 2026-05-07 18:24 | 36.96528 | -117.09259 | 35695 ft | 441 kts | 334° |
| 2026-05-07 18:24 | 36.99214 | -117.11010 | 35525 ft | 430 kts | 334° |
| 2026-05-07 18:24 | 37.01821 | -117.12707 | 35137 ft | 425 kts | 334° |
| 2026-05-07 18:24 | 37.04445 | -117.14413 | 34623 ft | 424 kts | 334° |
| 2026-05-07 18:25 | 37.07059 | -117.16114 | 34173 ft | 423 kts | 334° |
| 2026-05-07 18:25 | 37.09670 | -117.17818 | 33995 ft | 424 kts | 334° |
| 2026-05-07 18:25 | 37.12287 | -117.19531 | 34051 ft | 425 kts | 334° |
| 2026-05-07 18:26 | 37.17538 | -117.22968 | 34048 ft | 426 kts | 334° |
| 2026-05-07 18:26 | 37.21910 | -117.25823 | 34054 ft | 426 kts | 334° |
| 2026-05-07 18:27 | 37.27170 | -117.29271 | 34057 ft | 426 kts | 334° |
| 2026-05-07 18:27 | 37.32080 | -117.33432 | 34058 ft | 429 kts | 321° |
| 2026-05-07 18:28 | 37.36626 | -117.38302 | 34048 ft | 429 kts | 321° |
| 2026-05-07 18:28 | 37.41181 | -117.43169 | 34056 ft | 429 kts | 321° |
| 2026-05-07 18:29 | 37.45701 | -117.48012 | 34042 ft | 429 kts | 321° |
| 2026-05-07 18:29 | 37.50336 | -117.52724 | 34046 ft | 427 kts | 329° |
| 2026-05-07 18:30 | 37.55369 | -117.56695 | 34053 ft | 427 kts | 329° |
| 2026-05-07 18:30 | 37.60409 | -117.60679 | 34048 ft | 427 kts | 329° |
| 2026-05-07 18:31 | 37.65446 | -117.64665 | 34045 ft | 427 kts | 329° |
| 2026-05-07 18:31 | 37.70487 | -117.68698 | 34049 ft | 431 kts | 329° |
| 2026-05-07 18:31 | 37.72885 | -117.70868 | 34636 ft | 414 kts | 323° |
| 2026-05-07 18:32 | 37.75230 | -117.73013 | 34809 ft | 420 kts | 328° |
| 2026-05-07 18:32 | 37.80189 | -117.77043 | 34817 ft | 430 kts | 329° |
| 2026-05-07 18:33 | 37.85246 | -117.81123 | 34819 ft | 431 kts | 329° |
| 2026-05-07 18:33 | 37.90308 | -117.85203 | 34827 ft | 431 kts | 329° |
| 2026-05-07 18:34 | 37.95368 | -117.89263 | 34822 ft | 430 kts | 329° |
| 2026-05-07 18:34 | 38.00423 | -117.93315 | 34825 ft | 430 kts | 329° |
| 2026-05-07 18:35 | 38.05483 | -117.97371 | 34823 ft | 430 kts | 329° |
| 2026-05-07 18:35 | 38.10539 | -118.01414 | 34825 ft | 429 kts | 329° |
| 2026-05-07 18:36 | 38.15585 | -118.05440 | 34826 ft | 428 kts | 329° |
| 2026-05-07 18:36 | 38.20613 | -118.09450 | 34822 ft | 430 kts | 329° |
| 2026-05-07 18:37 | 38.25684 | -118.13488 | 34829 ft | 430 kts | 329° |
| 2026-05-07 18:37 | 38.30764 | -118.17519 | 34830 ft | 429 kts | 329° |
| 2026-05-07 18:38 | 38.35841 | -118.21547 | 34821 ft | 428 kts | 329° |
| 2026-05-07 18:38 | 38.38335 | -118.23527 | 34723 ft | 417 kts | 329° |
| 2026-05-07 18:38 | 38.40790 | -118.25476 | 34323 ft | 414 kts | 329° |
| 2026-05-07 18:38 | 38.43226 | -118.27407 | 33892 ft | 411 kts | 329° |
| 2026-05-07 18:39 | 38.45645 | -118.29321 | 33424 ft | 407 kts | 329° |
| 2026-05-07 18:39 | 38.48045 | -118.31223 | 32975 ft | 403 kts | 327° |
| 2026-05-07 18:39 | 38.50210 | -118.33288 | 33110 ft | 388 kts | 327° |
| 2026-05-07 18:39 | 38.52403 | -118.35093 | 33590 ft | 376 kts | 329° |
| 2026-05-07 18:40 | 38.54684 | -118.36909 | 33139 ft | 392 kts | 329° |
| 2026-05-07 18:40 | 38.57015 | -118.38752 | 32674 ft | 395 kts | 329° |
| 2026-05-07 18:40 | 38.59358 | -118.40600 | 32222 ft | 394 kts | 329° |
| 2026-05-07 18:40 | 38.61690 | -118.42434 | 31775 ft | 392 kts | 329° |
| 2026-05-07 18:41 | 38.64003 | -118.44254 | 31331 ft | 390 kts | 329° |
| 2026-05-07 18:41 | 38.66304 | -118.46062 | 30964 ft | 386 kts | 329° |
| 2026-05-07 18:41 | 38.68579 | -118.47853 | 30513 ft | 382 kts | 329° |
| 2026-05-07 18:41 | 38.70838 | -118.49633 | 30156 ft | 380 kts | 329° |
| 2026-05-07 18:42 | 38.73079 | -118.51410 | 29752 ft | 377 kts | 327° |
| 2026-05-07 18:42 | 38.74994 | -118.53683 | 29240 ft | 380 kts | 304° |
| 2026-05-07 18:42 | 38.75976 | -118.56799 | 28923 ft | 380 kts | 280° |
| 2026-05-07 18:42 | 38.75954 | -118.60180 | 28569 ft | 382 kts | 267° |
| 2026-05-07 18:43 | 38.75954 | -118.63575 | 27954 ft | 383 kts | 284° |
| 2026-05-07 18:43 | 38.76993 | -118.66684 | 27304 ft | 380 kts | 310° |
| 2026-05-07 18:43 | 38.78789 | -118.69051 | 27006 ft | 373 kts | 319° |
| 2026-05-07 18:43 | 38.80761 | -118.71200 | 26613 ft | 371 kts | 321° |
| 2026-05-07 18:44 | 38.82727 | -118.73331 | 26231 ft | 369 kts | 320° |
| 2026-05-07 18:44 | 38.84621 | -118.75546 | 25834 ft | 367 kts | 317° |
| 2026-05-07 18:44 | 38.86427 | -118.77858 | 25425 ft | 366 kts | 315° |
| 2026-05-07 18:44 | 38.88162 | -118.80243 | 25024 ft | 365 kts | 313° |
| 2026-05-07 18:45 | 38.89856 | -118.82672 | 24598 ft | 364 kts | 312° |
| 2026-05-07 18:45 | 38.91529 | -118.85108 | 24182 ft | 363 kts | 312° |
| 2026-05-07 18:45 | 38.93199 | -118.87533 | 23765 ft | 362 kts | 312° |
| 2026-05-07 18:45 | 38.94877 | -118.89946 | 23291 ft | 362 kts | 313° |
| 2026-05-07 18:46 | 38.96535 | -118.92306 | 22869 ft | 359 kts | 313° |
| 2026-05-07 18:46 | 38.98203 | -118.94670 | 22450 ft | 355 kts | 313° |
| 2026-05-07 18:46 | 38.99856 | -118.97013 | 22035 ft | 352 kts | 313° |
| 2026-05-07 18:46 | 39.01496 | -118.99339 | 21623 ft | 349 kts | 313° |
| 2026-05-07 18:47 | 39.03119 | -119.01646 | 21213 ft | 346 kts | 312° |
| 2026-05-07 18:47 | 39.04726 | -119.03935 | 20802 ft | 343 kts | 312° |
| 2026-05-07 18:47 | 39.06321 | -119.06210 | 20376 ft | 341 kts | 312° |
| 2026-05-07 18:47 | 39.07925 | -119.08452 | 19953 ft | 339 kts | 314° |
| 2026-05-07 18:48 | 39.09581 | -119.10612 | 19523 ft | 338 kts | 315° |
| 2026-05-07 18:48 | 39.11265 | -119.12718 | 19104 ft | 336 kts | 316° |
| 2026-05-07 18:48 | 39.12953 | -119.14795 | 18687 ft | 335 kts | 316° |
| 2026-05-07 18:48 | 39.14631 | -119.16864 | 18259 ft | 333 kts | 315° |
| 2026-05-07 18:49 | 39.16296 | -119.18931 | 17805 ft | 331 kts | 315° |
| 2026-05-07 18:49 | 39.17940 | -119.20985 | 17400 ft | 328 kts | 315° |
| 2026-05-07 18:49 | 39.19545 | -119.23002 | 17003 ft | 325 kts | 315° |
| 2026-05-07 18:49 | 39.21061 | -119.25037 | 17315 ft | 293 kts | 311° |
| 2026-05-07 18:50 | 39.22412 | -119.26885 | 17227 ft | 281 kts | 314° |
| 2026-05-07 18:50 | 39.23826 | -119.28664 | 16479 ft | 286 kts | 315° |
| 2026-05-07 18:50 | 39.25286 | -119.30440 | 15732 ft | 290 kts | 315° |
| 2026-05-07 18:50 | 39.26751 | -119.32221 | 15185 ft | 286 kts | 315° |
| 2026-05-07 18:51 | 39.28174 | -119.33971 | 14826 ft | 279 kts | 314° |
| 2026-05-07 18:51 | 39.29561 | -119.35699 | 14486 ft | 276 kts | 314° |
| 2026-05-07 18:51 | 39.30934 | -119.37428 | 14151 ft | 275 kts | 314° |
| 2026-05-07 18:51 | 39.32297 | -119.39155 | 13805 ft | 274 kts | 313° |
| 2026-05-07 18:52 | 39.33573 | -119.40901 | 13935 ft | 246 kts | 294° |
| 2026-05-07 18:52 | 39.34030 | -119.42942 | 14412 ft | 256 kts | 272° |
| 2026-05-07 18:52 | 39.34144 | -119.45395 | 13553 ft | 284 kts | 279° |
| 2026-05-07 18:52 | 39.34516 | -119.47891 | 13084 ft | 289 kts | 281° |
| 2026-05-07 18:53 | 39.34925 | -119.50446 | 12613 ft | 291 kts | 281° |
| 2026-05-07 18:53 | 39.35020 | -119.53057 | 12146 ft | 294 kts | 261° |
| 2026-05-07 18:53 | 39.34323 | -119.55543 | 11686 ft | 298 kts | 239° |
| 2026-05-07 18:53 | 39.32904 | -119.57512 | 11247 ft | 304 kts | 217° |
| 2026-05-07 18:54 | 39.30997 | -119.58654 | 11005 ft | 302 kts | 199° |
| 2026-05-07 18:54 | 39.29008 | -119.59410 | 10781 ft | 297 kts | 199° |
| 2026-05-07 18:54 | 39.27056 | -119.60192 | 10554 ft | 290 kts | 206° |
| 2026-05-07 18:54 | 39.25411 | -119.61545 | 10412 ft | 281 kts | 222° |
| 2026-05-07 18:55 | 39.23896 | -119.63160 | 10643 ft | 284 kts | 221° |
| 2026-05-07 18:55 | 39.22370 | -119.64767 | 10871 ft | 276 kts | 221° |
| 2026-05-07 18:55 | 39.20937 | -119.66267 | 11077 ft | 256 kts | 221° |
| 2026-05-07 18:55 | 39.19566 | -119.67708 | 11168 ft | 254 kts | 221° |
| 2026-05-07 18:56 | 39.18234 | -119.69201 | 11178 ft | 252 kts | 231° |
| 2026-05-07 18:56 | 39.17416 | -119.71156 | 11181 ft | 249 kts | 257° |
| 2026-05-07 18:56 | 39.17370 | -119.73367 | 11183 ft | 250 kts | 282° |
| 2026-05-07 18:56 | 39.18115 | -119.75387 | 11182 ft | 253 kts | 308° |
| 2026-05-07 18:57 | 39.19501 | -119.76743 | 11182 ft | 259 kts | 335° |
| 2026-05-07 18:57 | 39.21286 | -119.77144 | 11194 ft | 264 kts | 356° |
| 2026-05-07 18:57 | 39.23121 | -119.77168 | 11089 ft | 262 kts | 356° |
| 2026-05-07 18:57 | 39.24942 | -119.77175 | 10808 ft | 261 kts | 356° |
| 2026-05-07 18:58 | 39.26756 | -119.77180 | 10538 ft | 260 kts | 356° |
| 2026-05-07 18:58 | 39.28566 | -119.77187 | 10262 ft | 260 kts | 356° |
| 2026-05-07 18:58 | 39.30372 | -119.77197 | 9967 ft | 259 kts | 356° |
| 2026-05-07 18:58 | 39.32174 | -119.77207 | 9653 ft | 258 kts | 356° |
| 2026-05-07 18:59 | 39.33969 | -119.77214 | 9333 ft | 258 kts | 358° |
| 2026-05-07 18:59 | 39.35810 | -119.76978 | 8664 ft | 275 kts | 6° |
| 2026-05-07 18:59 | 39.37758 | -119.76670 | 7902 ft | 289 kts | 2° |
| 2026-05-07 18:59 | 39.39776 | -119.76557 | 7198 ft | 286 kts | 358° |
| 2026-05-07 19:00 | 39.41657 | -119.76576 | 6657 ft | 246 kts | 358° |
| 2026-05-07 19:00 | 39.43252 | -119.76605 | 6217 ft | 216 kts | 355° |
| 2026-05-07 19:00 | 39.44675 | -119.76670 | 5729 ft | 196 kts | 356° |
| 2026-05-07 19:00 | 39.45996 | -119.76696 | 5241 ft | 182 kts | 358° |
| 2026-05-07 19:01 | 39.47210 | -119.76701 | 4854 ft | 169 kts | 358° |
| 2026-05-07 19:01 | 39.48358 | -119.76656 | 4597 ft | 159 kts | 355° |
| 2026-05-07 19:01 | 39.49441 | -119.76680 | 4437 ft | 153 kts | 356° |
| 2026-05-07 19:01 | 39.50330 | -119.76679 | 4404 ft | 93 kts | 360° |
| 2026-05-07 19:02 | 39.50673 | -119.76677 | 4409 ft | 6 kts | 0° |
| 2026-05-07 19:02 | 39.50716 | -119.76677 | 4409 ft | 14 kts | 0° |
| 2026-05-07 19:02 | 39.50828 | -119.76675 | 4408 ft | 15 kts | 359° |
| 2026-05-07 19:02 | 39.50905 | -119.76691 | 4409 ft | 8 kts | 344° |
| 2026-05-07 19:03 | 39.50954 | -119.76717 | 4410 ft | 8 kts | 331° |
| 2026-05-07 19:03 | 39.50999 | -119.76759 | 4411 ft | 8 kts | 319° |
| 2026-05-07 19:03 | 39.51041 | -119.76813 | 4412 ft | 9 kts | 313° |
| 2026-05-07 19:03 | 39.51085 | -119.76878 | 4413 ft | 10 kts | 306° |
| 2026-05-07 19:04 | 39.51100 | -119.76977 | 4412 ft | 12 kts | 269° |
| 2026-05-07 19:04 | 39.51099 | -119.77089 | 4412 ft | 13 kts | 267° |
| 2026-05-07 19:04 | 39.51049 | -119.77149 | 4412 ft | 12 kts | 185° |